createdAt,value
2018-11-05T00:00:03.189Z,9.47
2018-11-05T00:02:31.360Z,9.49
2018-11-05T00:04:59.516Z,9.47
2018-11-05T00:07:27.671Z,9.47
2018-11-05T00:09:55.831Z,9.45
2018-11-05T00:12:24.010Z,9.46
2018-11-05T00:14:52.151Z,9.45
2018-11-05T00:17:20.295Z,9.43
2018-11-05T00:19:48.458Z,9.40
2018-11-05T00:22:16.730Z,9.38
2018-11-05T00:24:44.900Z,9.37
2018-11-05T00:27:13.035Z,9.35
2018-11-05T00:29:41.221Z,9.36
2018-11-05T00:32:09.372Z,9.38
2018-11-05T00:34:37.532Z,9.40
2018-11-05T00:37:06.400Z,9.41
2018-11-05T00:39:34.519Z,9.42
2018-11-05T00:42:02.682Z,9.43
2018-11-05T00:44:30.843Z,9.43
2018-11-05T00:46:59.023Z,9.42
2018-11-05T00:49:27.174Z,9.41
2018-11-05T00:51:55.305Z,9.42
2018-11-05T00:54:23.487Z,9.41
2018-11-05T00:56:51.731Z,9.44
2018-11-05T00:59:19.896Z,9.45
2018-11-05T01:01:48.052Z,9.47
2018-11-05T01:04:16.216Z,9.48
2018-11-05T01:06:44.396Z,9.49
2018-11-05T01:09:12.536Z,9.48
2018-11-05T01:11:40.701Z,9.48
2018-11-05T01:14:09.318Z,9.48
2018-11-05T01:16:37.483Z,9.50
2018-11-05T01:19:05.992Z,9.52
2018-11-05T01:21:34.239Z,9.53
2018-11-05T01:24:02.536Z,9.56
2018-11-05T01:26:30.782Z,9.56
2018-11-05T01:28:58.971Z,9.59
2018-11-05T01:31:27.346Z,9.62
2018-11-05T01:33:55.639Z,9.63
2018-11-05T01:36:23.787Z,9.64
2018-11-05T01:38:52.062Z,9.65
2018-11-05T01:41:20.212Z,9.67
2018-11-05T01:43:48.506Z,9.69
2018-11-05T01:46:16.704Z,9.71
2018-11-05T01:48:44.864Z,9.75
2018-11-05T01:51:13.024Z,9.78
2018-11-05T01:53:41.170Z,9.82
2018-11-05T01:56:09.431Z,9.84
2018-11-05T01:58:37.600Z,9.88
2018-11-05T02:01:05.799Z,9.92
2018-11-05T02:03:33.961Z,9.93
2018-11-05T02:06:02.123Z,9.95
2018-11-05T02:08:30.270Z,9.94
2018-11-05T02:10:58.498Z,9.95
2018-11-05T02:13:26.757Z,9.95
2018-11-05T02:15:54.825Z,9.95
2018-11-05T02:18:22.967Z,9.94
2018-11-05T02:20:51.182Z,9.94
2018-11-05T02:23:19.371Z,9.94
2018-11-05T02:25:47.535Z,9.93
2018-11-05T02:28:15.703Z,9.92
2018-11-05T02:30:43.884Z,9.89
2018-11-05T02:33:12.035Z,9.88
2018-11-05T02:35:40.194Z,9.86
2018-11-05T02:38:08.360Z,9.88
2018-11-05T02:40:36.512Z,9.88
2018-11-05T02:43:04.703Z,9.88
2018-11-05T02:45:33.363Z,9.87
2018-11-05T02:48:01.516Z,9.91
2018-11-05T02:50:29.703Z,9.91
2018-11-05T02:52:57.951Z,9.93
2018-11-05T02:55:26.116Z,9.94
2018-11-05T02:57:54.259Z,9.95
2018-11-05T03:00:22.422Z,9.96
2018-11-05T03:02:50.582Z,9.98
2018-11-05T03:05:19.773Z,9.98
2018-11-05T03:07:48.803Z,9.98
2018-11-05T03:10:17.142Z,9.97
2018-11-05T03:12:46.334Z,9.98
2018-11-05T03:15:16.575Z,9.99
2018-11-05T03:17:44.756Z,9.98
2018-11-05T03:20:13.833Z,9.98
2018-11-05T03:22:42.420Z,9.98
2018-11-05T03:25:10.574Z,9.99
2018-11-05T03:27:39.072Z,9.99
2018-11-05T03:30:10.118Z,9.98
2018-11-05T03:32:38.287Z,9.99
2018-11-05T03:35:07.284Z,9.98
2018-11-05T03:37:35.488Z,9.98
2018-11-05T03:40:03.657Z,9.99
2018-11-05T03:42:31.819Z,9.99
2018-11-05T03:44:59.955Z,9.99
2018-11-05T03:47:28.127Z,9.99
2018-11-05T03:49:56.308Z,10.01
2018-11-05T03:52:24.467Z,10.02
2018-11-05T03:54:52.625Z,10.04
2018-11-05T03:57:20.825Z,10.06
2018-11-05T03:59:49.018Z,10.07
2018-11-05T04:02:17.200Z,10.09
2018-11-05T04:04:45.420Z,10.10
2018-11-05T04:07:13.595Z,10.10
2018-11-05T04:09:41.734Z,10.12
2018-11-05T04:12:09.924Z,10.15
2018-11-05T04:14:38.112Z,10.16
2018-11-05T04:17:07.112Z,10.17
2018-11-05T04:19:35.297Z,10.19
2018-11-05T04:22:03.449Z,10.20
2018-11-05T04:24:31.629Z,10.21
2018-11-05T04:26:59.806Z,10.21
2018-11-05T04:29:27.967Z,10.23
2018-11-05T04:31:56.132Z,10.23
2018-11-05T04:34:24.335Z,10.23
2018-11-05T04:36:59.282Z,10.24
2018-11-05T04:39:27.469Z,10.26
2018-11-05T04:41:55.687Z,10.29
2018-11-05T04:44:23.850Z,10.30
2018-11-05T04:46:52.014Z,10.32
2018-11-05T04:49:20.189Z,10.34
2018-11-05T04:51:48.343Z,10.34
2018-11-05T04:54:16.495Z,10.36
2018-11-05T04:56:44.645Z,10.34
2018-11-05T04:59:12.807Z,10.36
2018-11-05T05:01:40.989Z,10.37
2018-11-05T05:04:09.176Z,10.38
2018-11-05T05:06:37.363Z,10.41
2018-11-05T05:09:08.588Z,10.42
2018-11-05T05:11:36.795Z,10.44
2018-11-05T05:14:05.647Z,10.44
2018-11-05T05:16:33.820Z,10.46
2018-11-05T05:19:01.983Z,10.47
2018-11-05T05:21:30.174Z,10.50
2018-11-05T05:23:58.352Z,10.51
2018-11-05T05:26:26.731Z,10.53
2018-11-05T05:28:54.892Z,10.54
2018-11-05T05:31:23.171Z,10.55
2018-11-05T05:33:51.360Z,10.55
2018-11-05T05:36:19.520Z,10.56
2018-11-05T05:38:47.672Z,10.57
2018-11-05T05:41:15.904Z,10.60
2018-11-05T05:43:44.044Z,10.61
2018-11-05T05:46:12.230Z,10.63
2018-11-05T05:48:40.440Z,10.63
2018-11-05T05:51:08.599Z,10.67
2018-11-05T05:53:36.804Z,10.67
2018-11-05T05:56:05.068Z,10.68
2018-11-05T05:58:33.222Z,10.69
2018-11-05T06:01:01.408Z,10.72
2018-11-05T06:03:29.546Z,10.73
2018-11-05T06:05:57.742Z,10.74
2018-11-05T06:08:25.907Z,10.76
2018-11-05T06:10:54.055Z,10.77
2018-11-05T06:13:22.215Z,10.78
2018-11-05T06:15:50.476Z,10.81
2018-11-05T06:18:18.569Z,10.82
2018-11-05T06:20:46.698Z,10.83
2018-11-05T06:23:14.863Z,10.84
2018-11-05T06:25:43.011Z,10.85
2018-11-05T06:28:11.178Z,10.88
2018-11-05T06:30:39.350Z,10.88
2018-11-05T06:33:07.555Z,10.90
2018-11-05T06:35:35.715Z,10.91
2018-11-05T06:38:03.871Z,10.93
2018-11-05T06:40:32.041Z,10.94
2018-11-05T06:43:00.212Z,10.95
2018-11-05T06:45:28.457Z,10.95
2018-11-05T06:47:56.563Z,10.97
2018-11-05T06:50:25.795Z,10.98
2018-11-05T06:52:53.965Z,11.01
2018-11-05T06:55:22.111Z,11.01
2018-11-05T06:57:50.480Z,11.04
2018-11-05T07:00:22.791Z,11.05
2018-11-05T07:02:50.974Z,11.08
2018-11-05T07:05:19.173Z,11.09
2018-11-05T07:07:47.346Z,11.11
2018-11-05T07:10:16.300Z,11.13
2018-11-05T07:12:44.904Z,11.15
2018-11-05T07:15:14.178Z,11.15
2018-11-05T07:17:43.272Z,11.16
2018-11-05T07:20:13.435Z,11.17
2018-11-05T07:22:41.699Z,11.18
2018-11-05T07:25:11.278Z,11.19
2018-11-05T07:27:39.510Z,11.21
2018-11-05T07:30:14.520Z,11.24
2018-11-05T07:32:42.720Z,11.26
2018-11-05T07:35:12.588Z,11.28
2018-11-05T07:37:41.049Z,11.31
2018-11-05T07:40:10.464Z,11.32
2018-11-05T07:42:38.943Z,11.34
2018-11-05T07:45:09.002Z,11.37
2018-11-05T07:47:37.183Z,11.38
2018-11-05T07:50:07.573Z,11.42
2018-11-05T07:52:35.676Z,11.46
2018-11-05T07:55:03.856Z,11.47
2018-11-05T07:57:32.040Z,11.49
2018-11-05T08:00:00.200Z,11.52
2018-11-05T08:02:28.343Z,11.53
2018-11-05T08:04:56.608Z,11.54
2018-11-05T08:07:24.767Z,11.55
2018-11-05T08:09:52.956Z,11.57
2018-11-05T08:12:21.115Z,11.58
2018-11-05T08:14:49.279Z,11.60
2018-11-05T08:17:17.483Z,11.61
2018-11-05T08:19:45.651Z,11.64
2018-11-05T08:22:13.816Z,11.65
2018-11-05T08:24:42.015Z,11.69
2018-11-05T08:27:10.160Z,11.71
2018-11-05T08:29:38.431Z,11.73
2018-11-05T08:32:06.600Z,11.75
2018-11-05T08:34:34.812Z,11.76
2018-11-05T08:37:02.966Z,11.78
2018-11-05T08:39:31.186Z,11.79
2018-11-05T08:41:59.343Z,11.79
2018-11-05T08:44:27.539Z,11.83
2018-11-05T08:46:55.836Z,11.86
2018-11-05T08:49:23.887Z,11.88
2018-11-05T08:51:52.113Z,11.90
2018-11-05T08:54:20.288Z,11.93
2018-11-05T08:56:48.503Z,11.95
2018-11-05T08:59:16.665Z,11.97
2018-11-05T09:01:44.841Z,12.01
2018-11-05T09:04:13.043Z,12.03
2018-11-05T09:06:41.260Z,12.05
2018-11-05T09:09:09.467Z,12.09
2018-11-05T09:11:38.188Z,12.11
2018-11-05T09:14:05.907Z,12.14
2018-11-05T09:16:34.096Z,12.17
2018-11-05T09:19:02.276Z,12.20
2018-11-05T09:21:30.424Z,12.22
2018-11-05T09:23:58.632Z,12.24
2018-11-05T09:26:26.794Z,12.28
2018-11-05T09:28:55.056Z,12.31
2018-11-05T09:31:23.281Z,12.35
2018-11-05T09:33:51.448Z,12.39
2018-11-05T09:36:19.622Z,12.42
2018-11-05T09:38:47.875Z,12.44
2018-11-05T09:41:16.087Z,12.46
2018-11-05T09:43:44.239Z,12.50
2018-11-05T09:46:19.179Z,12.50
2018-11-05T09:48:47.356Z,12.52
2018-11-05T09:51:15.524Z,12.53
2018-11-05T09:53:43.706Z,12.55
2018-11-05T09:56:11.887Z,12.56
2018-11-05T09:58:40.053Z,12.57
2018-11-05T10:01:08.263Z,12.58
2018-11-05T10:03:41.926Z,12.60
2018-11-05T10:06:10.013Z,12.60
2018-11-05T10:08:38.167Z,12.62
2018-11-05T10:11:06.603Z,12.62
2018-11-05T10:13:34.794Z,12.65
2018-11-05T10:16:03.019Z,12.63
2018-11-05T10:18:31.289Z,12.65
2018-11-05T10:20:59.436Z,12.67
2018-11-05T10:23:27.594Z,12.70
2018-11-05T10:25:55.743Z,12.72
2018-11-05T10:28:23.927Z,12.75
2018-11-05T10:30:52.101Z,12.79
2018-11-05T10:33:20.343Z,12.83
2018-11-05T10:35:53.933Z,12.86
2018-11-05T10:38:22.120Z,12.91
2018-11-05T10:40:50.300Z,12.93
2018-11-05T10:43:18.491Z,12.98
2018-11-05T10:45:46.683Z,13.01
2018-11-05T10:48:14.879Z,13.05
2018-11-05T10:50:43.074Z,13.08
2018-11-05T10:53:11.202Z,13.13
2018-11-05T10:55:39.383Z,13.15
2018-11-05T10:58:07.817Z,13.19
2018-11-05T11:00:41.226Z,13.22
2018-11-05T11:03:21.066Z,13.26
2018-11-05T11:05:49.234Z,13.30
2018-11-05T11:08:17.532Z,13.31
2018-11-05T11:10:45.748Z,13.30
2018-11-05T11:13:13.976Z,13.28
2018-11-05T11:15:42.138Z,13.30
2018-11-05T11:18:10.359Z,13.33
2018-11-05T11:20:38.535Z,13.38
2018-11-05T11:23:06.834Z,13.44
2018-11-05T11:25:35.011Z,13.48
2018-11-05T11:28:03.337Z,13.51
2018-11-05T11:30:31.436Z,13.54
2018-11-05T11:32:59.811Z,13.55
2018-11-05T11:35:28.011Z,13.55
2018-11-05T11:37:56.222Z,13.55
2018-11-05T11:40:24.643Z,13.55
2018-11-05T11:42:52.914Z,13.56
2018-11-05T11:45:22.170Z,13.55
2018-11-05T11:47:50.403Z,13.56
2018-11-05T11:50:18.893Z,13.57
2018-11-05T11:52:47.266Z,13.60
2018-11-05T11:55:17.636Z,13.61
2018-11-05T11:57:45.971Z,13.63
2018-11-05T12:00:23.075Z,13.64
2018-11-05T12:02:51.801Z,13.63
2018-11-05T12:05:20.111Z,13.63
2018-11-05T12:07:48.224Z,13.64
2018-11-05T12:10:18.195Z,13.64
2018-11-05T12:12:46.699Z,13.67
2018-11-05T12:15:15.994Z,13.71
2018-11-05T12:17:44.998Z,13.78
2018-11-05T12:20:14.531Z,13.81
2018-11-05T12:22:43.311Z,13.81
2018-11-05T13:25:08.165Z,13.83
2018-11-05T13:27:43.430Z,13.88
2018-11-05T13:30:16.873Z,13.90
2018-11-05T13:35:41.079Z,14.00
2018-11-05T13:38:15.007Z,14.03
2018-11-05T13:40:48.322Z,14.05
2018-11-05T13:43:22.124Z,14.11
2018-11-05T13:46:01.542Z,14.16
2018-11-05T13:48:35.207Z,14.20
2018-11-05T13:51:08.433Z,14.22
2018-11-05T13:53:42.159Z,14.22
2018-11-05T13:56:16.174Z,14.21
2018-11-05T13:58:55.710Z,14.19
2018-11-05T14:01:40.668Z,14.13
2018-11-05T14:04:08.899Z,14.15
2018-11-05T14:06:42.290Z,14.12
2018-11-05T14:09:16.233Z,14.07
2018-11-05T14:17:14.227Z,13.98
2018-11-05T14:22:26.967Z,13.91
2018-11-05T14:25:00.858Z,13.88
2018-11-05T14:27:34.871Z,13.87
2018-11-05T14:30:08.597Z,13.85
2018-11-05T14:32:41.936Z,13.83
2018-11-05T14:37:49.515Z,13.81
2018-11-05T14:40:28.631Z,13.79
2018-11-05T14:42:57.411Z,13.76
2018-11-05T14:48:05.171Z,13.72
2018-11-05T14:50:44.467Z,13.70
2018-11-05T14:53:13.454Z,13.68
2018-11-05T14:55:52.995Z,13.67
2018-11-05T14:58:26.439Z,13.63
2018-11-05T15:00:55.274Z,13.61
2018-11-05T15:03:34.294Z,13.58
2018-11-05T15:06:13.422Z,13.58
2018-11-05T15:08:41.613Z,13.56
2018-11-05T15:11:09.852Z,13.56
2018-11-05T15:13:38.079Z,13.56
2018-11-05T15:16:06.955Z,13.56
2018-11-05T15:18:35.351Z,13.56
2018-11-05T15:21:04.111Z,13.56
2018-11-05T15:23:32.291Z,13.54
2018-11-05T15:26:00.508Z,13.53
2018-11-05T15:28:29.016Z,13.50
2018-11-05T15:30:57.239Z,13.46
2018-11-05T15:33:25.478Z,13.42
2018-11-05T15:35:53.602Z,13.37
2018-11-05T15:38:22.411Z,13.32
2018-11-05T15:40:50.624Z,13.28
2018-11-05T15:43:18.835Z,13.24
2018-11-05T15:45:47.016Z,13.22
2018-11-05T15:48:15.153Z,13.22
2018-11-05T15:50:43.600Z,13.22
2018-11-05T15:53:12.141Z,13.22
2018-11-05T15:55:40.172Z,13.23
2018-11-05T15:58:08.330Z,13.22
2018-11-05T16:00:36.583Z,13.21
2018-11-05T16:03:04.787Z,13.20
2018-11-05T16:05:33.106Z,13.18
2018-11-05T16:08:01.300Z,13.18
2018-11-05T16:10:29.587Z,13.18
2018-11-05T16:12:57.824Z,13.16
2018-11-05T16:15:26.026Z,13.13
2018-11-05T16:17:54.234Z,13.12
2018-11-05T16:20:23.187Z,13.10
2018-11-05T16:22:52.063Z,13.09
2018-11-05T16:25:20.259Z,13.08
2018-11-05T16:27:48.503Z,13.07
2018-11-05T16:30:19.005Z,13.07
2018-11-05T16:32:47.839Z,13.07
2018-11-05T16:35:16.138Z,13.04
2018-11-05T16:37:44.398Z,13.04
2018-11-05T16:40:14.180Z,13.03
2018-11-05T16:42:42.896Z,13.02
2018-11-05T16:45:11.634Z,13.02
2018-11-05T16:47:40.453Z,12.98
2018-11-05T16:50:11.892Z,12.95
2018-11-05T16:52:40.106Z,12.92
2018-11-05T16:55:10.087Z,12.87
2018-11-05T16:57:38.455Z,12.84
2018-11-05T17:00:07.315Z,12.80
2018-11-05T17:02:35.801Z,12.79
2018-11-05T17:05:03.850Z,12.78
2018-11-05T17:07:32.022Z,12.78
2018-11-05T17:10:00.256Z,12.78
2018-11-05T17:12:28.540Z,12.76
2018-11-05T17:14:56.698Z,12.76
2018-11-05T17:17:24.928Z,12.72
2018-11-05T17:19:53.173Z,12.69
2018-11-05T17:22:21.371Z,12.65
2018-11-05T17:24:49.562Z,12.62
2018-11-05T17:27:17.790Z,12.60
2018-11-05T17:29:46.020Z,12.57
2018-11-05T17:32:14.307Z,12.54
2018-11-05T17:34:42.479Z,12.51
2018-11-05T17:37:10.719Z,12.48
2018-11-05T17:39:38.918Z,12.47
2018-11-05T17:42:07.280Z,12.45
2018-11-05T17:44:35.467Z,12.42
2018-11-05T17:47:03.729Z,12.42
2018-11-05T17:49:32.014Z,12.42
2018-11-05T17:52:00.202Z,12.43
2018-11-05T17:54:28.383Z,12.43
2018-11-05T17:57:00.977Z,12.41
2018-11-05T17:59:29.166Z,12.41
2018-11-05T18:01:57.386Z,12.39
2018-11-05T18:04:25.693Z,12.40
2018-11-05T18:06:53.869Z,12.39
2018-11-05T18:09:23.165Z,12.38
2018-11-05T18:11:51.207Z,12.37
2018-11-05T18:14:19.490Z,12.37
2018-11-05T18:16:47.793Z,12.37
2018-11-05T18:19:16.007Z,12.36
2018-11-05T18:21:44.246Z,12.34
2018-11-05T18:24:12.555Z,12.36
2018-11-05T18:26:40.751Z,12.35
2018-11-05T18:29:08.996Z,12.35
2018-11-05T18:31:37.208Z,12.37
2018-11-05T18:34:05.731Z,12.37
2018-11-05T18:36:33.956Z,12.39
2018-11-05T18:39:02.391Z,12.38
2018-11-05T18:41:30.652Z,12.37
2018-11-05T18:43:58.859Z,12.36
2018-11-05T18:46:27.151Z,12.37
2018-11-05T18:48:55.352Z,12.36
2018-11-05T18:51:23.571Z,12.38
2018-11-05T18:53:51.767Z,12.38
2018-11-05T18:56:19.965Z,12.38
2018-11-05T18:58:48.106Z,12.37
2018-11-05T19:01:16.356Z,12.36
2018-11-05T19:03:44.670Z,12.37
2018-11-05T19:06:12.852Z,12.35
2018-11-05T19:08:41.060Z,12.33
2018-11-05T19:11:09.311Z,12.30
2018-11-05T19:13:37.510Z,12.27
2018-11-05T19:16:05.967Z,12.26
2018-11-05T19:18:34.016Z,12.22
2018-11-05T19:21:02.270Z,12.19
2018-11-05T19:23:30.551Z,12.16
2018-11-05T19:33:28.869Z,12.12
2018-11-05T19:35:57.030Z,12.16
2018-11-05T19:38:25.147Z,12.16
2018-11-05T19:40:53.356Z,12.15
2018-11-05T19:43:21.573Z,12.17
2018-11-05T19:45:49.715Z,12.16
2018-11-05T19:48:17.874Z,12.16
2018-11-05T19:50:46.150Z,12.17
2018-11-05T19:53:14.364Z,12.15
2018-11-05T19:55:42.564Z,12.14
2018-11-05T19:58:10.743Z,12.13
2018-11-05T20:00:38.971Z,12.13
2018-11-05T20:03:07.091Z,12.11
2018-11-05T20:05:35.418Z,12.11
2018-11-05T20:08:03.479Z,12.10
2018-11-05T20:10:31.682Z,12.09
2018-11-05T20:12:59.837Z,12.09
2018-11-05T20:15:28.042Z,12.07
2018-11-05T20:17:56.652Z,12.06
2018-11-05T20:20:25.647Z,12.06
2018-11-05T20:22:53.948Z,12.05
2018-11-05T20:25:22.185Z,12.05
2018-11-05T20:27:50.367Z,12.03
2018-11-05T20:30:20.678Z,12.02
2018-11-05T20:32:49.869Z,12.02
2018-11-05T20:35:17.834Z,11.98
2018-11-05T20:37:45.999Z,11.98
2018-11-05T20:40:15.564Z,11.97
2018-11-05T20:42:44.731Z,11.96
2018-11-05T20:45:13.206Z,11.97
2018-11-05T20:47:41.687Z,11.97
2018-11-05T20:50:10.576Z,11.98
2018-11-05T20:52:39.257Z,11.97
2018-11-05T20:55:08.359Z,11.97
2018-11-05T20:57:36.571Z,11.96
2018-11-05T21:00:05.595Z,11.95
2018-11-05T21:02:33.750Z,11.94
2018-11-05T21:05:01.910Z,11.93
2018-11-05T21:07:30.070Z,11.93
2018-11-05T21:09:58.243Z,11.93
2018-11-05T21:12:26.391Z,11.93
2018-11-05T21:14:54.535Z,11.92
2018-11-05T21:17:23.145Z,11.90
2018-11-05T21:19:51.303Z,11.91
2018-11-05T21:22:19.594Z,11.92
2018-11-05T21:24:47.638Z,11.94
2018-11-05T21:27:15.793Z,11.95
2018-11-05T21:29:43.948Z,11.95
2018-11-05T21:32:12.131Z,11.95
2018-11-05T21:34:40.338Z,11.96
2018-11-05T21:37:08.441Z,11.95
2018-11-05T21:39:36.590Z,11.94
2018-11-05T21:42:04.752Z,11.95
2018-11-05T21:44:32.911Z,11.94
2018-11-05T21:47:01.058Z,11.92
2018-11-05T21:49:29.219Z,11.93
2018-11-05T21:51:57.574Z,11.93
2018-11-05T21:54:25.776Z,11.93
2018-11-05T21:56:53.883Z,11.93
2018-11-05T21:59:22.044Z,11.94
2018-11-05T22:01:50.210Z,11.94
2018-11-05T22:04:18.370Z,11.95
2018-11-05T22:06:46.527Z,11.95
2018-11-05T22:09:14.682Z,11.96
2018-11-05T22:11:42.842Z,11.95
2018-11-05T22:14:11.006Z,11.96
2018-11-05T22:16:39.171Z,11.94
2018-11-05T22:19:07.403Z,11.93
2018-11-05T22:21:35.556Z,11.91
2018-11-05T22:24:03.699Z,11.89
2018-11-05T22:26:31.867Z,11.89
2018-11-05T22:29:00.031Z,11.87
2018-11-05T22:31:28.171Z,11.85
2018-11-05T22:33:56.388Z,11.85
2018-11-05T22:36:24.483Z,11.82
2018-11-05T22:38:52.718Z,11.81
2018-11-05T22:41:20.884Z,11.80
2018-11-05T22:43:49.136Z,11.77
2018-11-05T22:46:17.268Z,11.76
2018-11-05T22:48:45.445Z,11.73
2018-11-05T22:51:13.611Z,11.71
2018-11-05T22:53:41.760Z,11.69
2018-11-05T22:56:09.936Z,11.65
2018-11-05T22:58:38.095Z,11.62
2018-11-05T23:01:07.571Z,11.58
2018-11-05T23:03:35.793Z,11.56
2018-11-05T23:06:03.976Z,11.54
2018-11-05T23:08:32.139Z,11.51
2018-11-05T23:11:00.345Z,11.48
2018-11-05T23:13:28.510Z,11.45
2018-11-05T23:15:56.671Z,11.41
2018-11-05T23:18:24.895Z,11.40
2018-11-05T23:20:53.036Z,11.35
2018-11-05T23:23:21.186Z,11.31
2018-11-05T23:25:49.339Z,11.28
2018-11-05T23:28:17.522Z,11.26
2018-11-05T23:30:45.695Z,11.26
2018-11-05T23:33:13.866Z,11.28
2018-11-05T23:35:42.016Z,11.30
2018-11-05T23:38:10.158Z,11.29
2018-11-05T23:40:38.315Z,11.26
2018-11-05T23:43:06.479Z,11.26
2018-11-05T23:45:34.635Z,11.26
2018-11-05T23:48:02.795Z,11.25
2018-11-05T23:50:30.949Z,11.26
2018-11-05T23:52:59.087Z,11.25
2018-11-05T23:55:27.257Z,11.24
2018-11-05T23:57:55.411Z,11.22
